Terminal Aerodrome Forecast
Issued by NWS Austin/San Antonio, TX

Home | Current Version | Previous Version | Text Only | Print | Product List | Glossary On
Versions: 1 2 3 4 5 6 7 8 9 10 11 12 13 14 15 16 17 18 19 20 21
000
FTUS44 KEWX 111205 AAA
TAFSAT
TAF AMD
KSAT 111205Z 1112/1218 VRB04KT 2SM -DZ BR OVC004
     FM111700 22010KT P6SM BKN008 OVC015
     FM112000 21012KT P6SM BKN015
     FM120300 21005KT 5SM BR SCT003 OVC008
     FM120600 24003KT 1SM BR BKN003 OVC006
     FM121000 33005KT 3SM BR BKN010 OVC020=

USA.gov is the U.S. government's official web portal to all federal, state and local government web resources and services.